UNR Ag. Experiment Farm, Sparks, Nevada Weather observations

Data are for 10 minute period ending at time listed.
 Day   Time   Solar   Ave.   Ave.  Ave.  Vector  Max.   Baro.   Total    
  of    of     Rad.   Air    Rel.  Wind   Wind   Wind  Press.  Precip.   
Year   Day            Temp.  Hum.  Speed  Dir.   Gust                    
2015   (PST)  Kw/m2    F      %     mph   deg.    mph    mb.     in.     
-------------------------------------------------------------------------
 182    2:20   0.00   63.1    83    1.6   299     2.6   866.7    0.00 
 182    2:30   0.00   63.1    81    0.7   337     2.0   866.8    0.00 
 182    2:40   0.00   62.2    83    1.6   257     3.8   866.8    0.00 
 182    2:50   0.00   63.7    73    3.0   188     5.4   866.8    0.00 
 182    3:00   0.00   63.8    72    0.5   186     1.4   866.8    0.00 
 182    3:10   0.00   64.5    69    0.6   203     1.7   866.7    0.00 
 182    3:20   0.00   64.2    71    0.5   113     1.3   866.8    0.00 
 182    3:30   0.00   63.4    73    0.8   144     2.2   866.8    0.00 
 182    3:40   0.00   62.8    76    1.6    74     2.6   866.7    0.00 
 182    3:50   0.00   61.2    83    1.9    95     2.8   866.7    0.00 
 182    4:00   0.00   61.0    84    1.9   133     2.9   866.7    0.00 
 182    4:10   0.00   60.0    84    2.2   151     2.7   866.7    0.00 
 182    4:20   0.00   60.2    84    1.5   161     3.0   866.7    0.00 
 182    4:30   0.00   60.1    83    0.4   171     1.6   866.8    0.00 
 182    4:40   0.00   60.0    83    0.1   170     0.9   866.9    0.00 
 182    4:50   0.01   60.8    82    0.1   170     0.7   866.9    0.00 
 182    5:00   0.01   61.1    83    0.8    60     2.0   866.9    0.00 
 182    5:10   0.02   60.3    85    2.0   100     2.9   867.0    0.00 
 182    5:20   0.03   59.9    86    1.9   116     2.4   867.1    0.00 
 182    5:30   0.04   59.7    86    0.3   192     1.4   867.2    0.00 
 182    5:40   0.06   59.8    87    1.6   178     3.4   867.2    0.00 
 182    5:50   0.12   60.4    88    0.8   176     2.9   867.4    0.00 
 182    6:00   0.17   63.1    88    0.0     0     0.0   867.4    0.00 
 182    6:10   0.17   65.8    84    0.6   189     1.3   867.5    0.00 
 182    6:20   0.14   66.5    81    1.6   196     2.4   867.7    0.00 
 182    6:30   0.13   67.1    80    0.7   172     1.6   867.7    0.00 
 182    6:40   0.17   68.4    76    0.0     0     0.0   867.7    0.00 
 182    6:50   0.20   69.5    70    0.4    64     1.8   867.8    0.00 
 182    7:00   0.28   70.6    66    0.2   138     2.0   868.0    0.00 
 182    7:10   0.37   71.8    60    0.9   110     1.8   868.1    0.00 
 182    7:20   0.32   74.4    54    0.4   112     1.5   868.3    0.00 
 182    7:30   0.28   74.7    53    0.3    23     1.5   868.4    0.00 
 182    7:40   0.28   74.1    54    0.9    70     2.2   868.4    0.00 
 182    7:50   0.28   74.6    52    0.2    48     1.3   868.5    0.00 
 182    8:00   0.32   75.3    52    0.3    17     1.2   868.5    0.00 
 182    8:10   0.33   74.8    54    0.6   333     1.7   868.5    0.00 
 182    8:20   0.35   76.1    50    0.2   116     1.1   868.5    0.00 
 182    8:30   0.43   76.7    49    0.7   140     2.3   868.5    0.00 
 182    8:40   0.45   78.5    46    0.9    40     2.6   868.4    0.00 
 182    8:50   0.47   78.5    46    0.4   341     1.2   868.4    0.00 
 182    9:00   0.51   79.1    47    0.5   331     1.8   868.4    0.00 
 182    9:10   0.54   78.9    43    1.0   335     2.0   868.2    0.00 
 182    9:20   0.58   79.6    41    1.1   348     2.3   868.3    0.00 
 182    9:30   0.64   80.2    40    1.2   348     2.4   868.3    0.00 
 182    9:40   0.71   81.4    39    1.2   242     3.1   868.3    0.00 
 182    9:50   0.61   82.6    38    1.0   297     2.6   868.2    0.00 
 182   10:00   0.65   82.1    38    1.7   319     2.8   868.1    0.00 
 182   10:10   0.63   83.4    35    0.7   297     2.5   868.0    0.00 
 182   10:20   0.57   85.3    33    1.1   243     2.1   868.0    0.00 
 182   10:30   0.42   84.9    33    1.1   337     2.3   868.0    0.00 
 182   10:40   0.41   85.1    35    1.1   335     2.4   867.9    0.00 
 182   10:50   0.52   86.6    30    0.4   228     2.0   868.0    0.00 
 182   11:00   0.61   88.1    27    0.2   304     1.6   868.0    0.00 
 182   11:10   0.75   89.1    25    0.7   322     2.1   868.0    0.00 
 182   11:20   0.75   89.7    25    1.2    30     2.1   867.8    0.00 
 182   11:30   0.57   89.0    25    0.6   337     1.7   867.7    0.00 
 182   11:40   0.55   89.7    24    0.1   340     0.9   867.6    0.00 
 182   11:50   0.77   90.6    25    0.6    34     1.7   867.5    0.00 
 182   12:00   0.83   90.9    26    1.3     7     2.3   867.3    0.00 
 182   12:10   0.83   90.4    26    1.6   335     2.8   867.2    0.00 
 182   12:20   0.83   91.3    24    1.5   333     3.0   867.0    0.00 
 182   12:30   0.65   91.5    24    2.1   329     4.7   866.9    0.00 
 182   12:40   0.58   91.6    24    1.3   348     2.9   866.9    0.00 
 182   12:50   0.50   92.6    22    1.4    58     2.6   866.8    0.00 
 182   13:00   0.72   92.9    26    1.9    29     2.7   866.7    0.00 
 182   13:10   0.92   93.4    22    0.6    19     2.2   866.7    0.00 
 182   13:20   0.91   95.5    20    1.2   100     5.3   866.4    0.00 
 182   13:30   0.83   94.9    19    1.8    75     3.7   866.2    0.00 
 182   13:40   0.90   94.8    22    3.9   138     6.6   866.1    0.00 
 182   13:50   0.85   93.8    22    5.1   144    10.0   865.9    0.00 
 182   14:00   0.88   94.4    20    3.3   100     6.3   865.8    0.00 
 182   14:10   0.67   95.1    21    2.0    47     5.0   865.6    0.00 
 182   14:20   0.61   93.1    27    2.7    16     5.6   865.4    0.00 
 182   14:30   0.79   94.1    24    2.0   327     4.8   865.3    0.00 
 182   14:40   0.72   93.6    26    3.4   328     8.0   865.2    0.00 
 182   14:50   0.78   92.9    27    8.1   298    17.0   865.3    0.00 
 182   15:00   0.80   93.2    27   12.8   262    20.1   865.2    0.00 
 182   15:10   0.75   93.8    26   13.9   255    23.6   865.2    0.00 
 182   15:20   0.75   93.3    28   11.1   269    18.6   865.3    0.00 
 182   15:30   0.72   92.7    29   10.0   279    17.8   865.2    0.00 
 182   15:40   0.64   91.6    29   14.2   289    22.6   865.2    0.00 
 182   15:50   0.26   90.0    30   14.5   287    22.9   865.3    0.00 
 182   16:00   0.16   89.2    30   12.5   280    19.2   865.3    0.00 
 182   16:10   0.16   89.4    29   12.5   282    19.1   865.4    0.00 
 182   16:20   0.12   89.7    28   13.5   274    19.4   865.5    0.00 
 182   16:30   0.10   89.7    28   12.2   268    18.0   865.6    0.00 
 182   16:40   0.08   89.3    28   12.0   263    19.9   865.6    0.00 
 182   16:50   0.07   89.1    28   10.3   262    15.1   865.5    0.00 
 182   17:00   0.07   89.3    27   12.3   260    18.6   865.4    0.00 
 182   17:10   0.08   88.9    27   12.6   265    21.0   865.5    0.00 
 182   17:20   0.08   88.8    27   12.7   264    20.2   865.8    0.00 
 182   17:30   0.07   88.6    26   13.3   264    19.3   865.8    0.00 
 182   17:40   0.06   88.4    26   10.7   253    17.8   866.0    0.00 
 182   17:50   0.05   85.8    32    6.8   194    14.5   866.2    0.00 
 182   18:00   0.05   84.5    32    3.9   164     7.7   866.1    0.00 
 182   18:10   0.04   85.0    32    3.2   228    14.0   866.2    0.00 
 182   18:20   0.04   84.4    32    7.5   218    13.5   866.4    0.00 
 182   18:30   0.03   83.1    33    5.9   220     9.9   866.4    0.00 
 182   18:40   0.03   84.8    29    7.4   259    13.3   866.4    0.00 
 182   18:50   0.03   85.6    27    7.7   278    13.4   866.5    0.00 
 182   19:00   0.04   84.8    28    8.1   283    14.0   866.4    0.00 
 182   19:10   0.03   84.9    28    9.6   283    13.2   866.5    0.00 
 182   19:20   0.01   84.4    28    6.9   287    12.3   866.5    0.00 
 182   19:30   0.01   83.9    28    7.3   283    11.9   866.6    0.00 
 182   19:40   0.00   82.9    30    6.8   289    13.2   866.5    0.00 
 182   19:50   0.00   82.9    30    6.2   302    14.4   866.6    0.00 
 182   20:00   0.00   81.4    33    4.0   318     6.0   866.7    0.00 
 182   20:10   0.00   79.9    35    4.0   333     6.1   866.8    0.00 
 182   20:20   0.00   79.7    35    2.7   340     4.5   866.9    0.00 
 182   20:30   0.00   79.1    34    4.8   331     7.5   867.0    0.00 
 182   20:40   0.00   79.5    32    5.7   328     8.1   867.1    0.00 
 182   20:50   0.00   78.8    33    4.7   329     7.9   867.3    0.00 
 182   21:00   0.00   76.8    36    4.8   344     6.6   867.5    0.00 
 182   21:10   0.00   76.8    34    4.0   342     5.8   867.5    0.00 
 182   21:20   0.00   76.3    34    4.1   348     5.8   867.6    0.00 
 182   21:30   0.00   75.1    37    4.2   349     5.7   867.7    0.00 
 182   21:40   0.00   75.5    36    3.6   336     5.8   867.7    0.00 
 182   21:50   0.00   75.6    36    3.4   334     4.7   867.8    0.00 
 182   22:00   0.00   74.8    38    3.6   337     5.0   867.7    0.00 
 182   22:10   0.00   73.8    41    2.4    33     4.4   867.7    0.00 
 182   22:20   0.00   73.4    41    2.9    76     4.7   867.6    0.00 
 182   22:30   0.00   73.0    43    3.4   101     5.0   867.6    0.00 
 182   22:40   0.00   72.1    44    2.5   121     3.3   867.5    0.00 
 182   22:50   0.00   71.2    50    4.0   164     6.6   867.7    0.00 
 182   23:00   0.00   70.1    55    7.0   172    10.7   868.0    0.00 
 182   23:10   0.00   72.6    50    3.6   165     6.9   868.1    0.00 
 182   23:20   0.00   72.3    50    3.6   164     5.0   868.2    0.00 
 182   23:30   0.00   71.8    52    3.0   171     4.9   868.2    0.00 
 182   23:40   0.00   71.9    50    1.5   194     2.7   868.0    0.00 
 182   23:50   0.00   72.9    46    1.0   151     2.4   867.9    0.00 
 183    0:00   0.00   73.7    46    2.6   126     4.3   867.9    0.00 
 183    0:10   0.00   72.6    49    4.1   173     9.9   867.7    0.00 
 183    0:20   0.00   72.9    48    6.3   166    10.0   867.6    0.00 
 183    0:30   0.00   73.6    47    6.7   174     9.9   867.6    0.00 
 183    0:40   0.00   73.1    48    5.5   180     7.9   867.5    0.00 
 183    0:50   0.00   72.3    49    5.5   176     8.8   867.4    0.00 
 183    1:00   0.00   71.4    50    4.4   200     6.6   867.3    0.00 
 183    1:10   0.00   70.2    52    4.2   205     6.2   867.2    0.00 
 183    1:20   0.00   69.6    54    4.4   211     6.2   867.1    0.00 
 183    1:30   0.00   69.9    54    4.7   205     5.6   866.9    0.00 
 183    1:40   0.00   69.5    54    3.6   215     5.3   866.8    0.00 
 183    1:50   0.00   69.1    51    1.6   268     3.7   866.8    0.00 
 183    2:00   0.00   68.1    56    2.5   149     3.9   866.8    0.00 
 183    2:10   0.00   67.3    56    2.2   163     3.6   867.0    0.00 

Return to Sparks, Nevada, UNR Ag Experiment Farm graphs page.


Western Regional Climate Center,wrcc@dri.edu